createdAt,value
2018-01-15T00:01:53.774Z,-2.34
2018-01-15T00:04:21.457Z,-2.40
2018-01-15T00:06:49.010Z,-2.38
2018-01-15T00:09:16.519Z,-2.42
2018-01-15T00:11:44.197Z,-2.41
2018-01-15T00:14:11.674Z,-2.45
2018-01-15T00:16:39.168Z,-2.45
2018-01-15T00:19:06.681Z,-2.45
2018-01-15T00:21:34.180Z,-2.39
2018-01-15T00:24:01.666Z,-2.37
2018-01-15T00:26:29.306Z,-2.43
2018-01-15T00:28:56.786Z,-2.55
2018-01-15T00:31:24.250Z,-2.55
2018-01-15T00:33:51.937Z,-2.56
2018-01-15T00:36:19.449Z,-2.51
2018-01-15T00:38:46.943Z,-2.51
2018-01-15T00:41:14.447Z,-2.42
2018-01-15T00:43:41.942Z,-2.39
2018-01-15T00:46:09.541Z,-2.42
2018-01-15T00:48:37.084Z,-2.51
2018-01-15T00:51:04.577Z,-2.46
2018-01-15T00:53:32.323Z,-2.40
2018-01-15T00:55:59.869Z,-2.40
2018-01-15T00:58:27.427Z,-2.49
2018-01-15T01:00:54.951Z,-2.44
2018-01-15T01:03:22.430Z,-2.43
2018-01-15T01:05:49.917Z,-2.40
2018-01-15T01:08:17.571Z,-2.39
2018-01-15T01:10:45.070Z,-2.45
2018-01-15T01:13:12.566Z,-2.42
2018-01-15T01:15:40.086Z,-2.40
2018-01-15T01:18:07.559Z,-2.36
2018-01-15T01:20:35.057Z,-2.37
2018-01-15T01:23:02.658Z,-2.31
2018-01-15T01:25:30.194Z,-2.31
2018-01-15T01:27:57.659Z,-2.32
2018-01-15T01:30:25.206Z,-2.38
2018-01-15T01:32:52.666Z,-2.39
2018-01-15T01:35:20.164Z,-2.44
2018-01-15T01:37:47.651Z,-2.44
2018-01-15T01:40:15.122Z,-2.39
2018-01-15T01:42:42.624Z,-2.39
2018-01-15T01:45:10.230Z,-2.46
2018-01-15T01:47:37.698Z,-2.52
2018-01-15T01:50:05.165Z,-2.48
2018-01-15T01:52:32.696Z,-2.44
2018-01-15T01:55:00.192Z,-2.48
2018-01-15T01:57:27.682Z,-2.46
2018-01-15T01:59:55.205Z,-2.42
2018-01-15T02:02:22.694Z,-2.38
2018-01-15T02:04:50.195Z,-2.40
2018-01-15T02:07:17.775Z,-2.41
2018-01-15T02:09:45.345Z,-2.45
2018-01-15T02:12:12.812Z,-2.45
2018-01-15T02:14:40.373Z,-2.45
2018-01-15T02:17:07.834Z,-2.49
2018-01-15T02:19:35.321Z,-2.45
2018-01-15T02:22:02.828Z,-2.52
2018-01-15T02:24:30.314Z,-2.62
2018-01-15T02:26:57.862Z,-2.54
2018-01-15T02:29:25.359Z,-2.56
2018-01-15T02:31:52.835Z,-2.53
2018-01-15T02:34:20.312Z,-2.48
2018-01-15T02:36:47.807Z,-2.52
2018-01-15T02:39:15.293Z,-2.51
2018-01-15T02:41:42.867Z,-2.49
2018-01-15T02:44:10.322Z,-2.53
2018-01-15T02:46:37.785Z,-2.47
2018-01-15T02:49:05.312Z,-2.44
2018-01-15T02:51:32.778Z,-2.37
2018-01-15T02:54:00.263Z,-2.40
2018-01-15T02:56:27.741Z,-2.43
2018-01-15T02:58:55.504Z,-2.37
2018-01-15T03:01:22.996Z,-2.37
2018-01-15T03:03:50.462Z,-2.36
2018-01-15T03:06:17.944Z,-2.39
2018-01-15T03:08:45.422Z,-2.38
2018-01-15T03:11:12.906Z,-2.37
2018-01-15T03:13:40.391Z,-2.30
2018-01-15T03:16:07.848Z,-2.26
2018-01-15T03:18:35.356Z,-2.25
2018-01-15T03:21:02.877Z,-2.24
2018-01-15T03:23:30.361Z,-2.20
2018-01-15T03:25:57.933Z,-2.16
2018-01-15T03:28:25.423Z,-2.18
2018-01-15T03:30:52.899Z,-2.12
2018-01-15T03:33:20.389Z,-2.10
2018-01-15T03:35:47.874Z,-2.12
2018-01-15T03:38:15.336Z,-2.06
2018-01-15T03:40:42.840Z,-2.04
2018-01-15T03:43:10.305Z,-2.07
2018-01-15T03:45:37.795Z,-2.08
2018-01-15T03:48:05.283Z,-2.07
2018-01-15T03:50:32.756Z,-2.03
2018-01-15T03:53:00.258Z,-2.07
2018-01-15T03:55:27.816Z,-2.00
2018-01-15T03:57:55.281Z,-1.99
2018-01-15T04:00:22.846Z,-1.95
2018-01-15T04:02:50.351Z,-2.02
2018-01-15T04:05:17.842Z,-1.98
2018-01-15T04:07:45.335Z,-1.93
2018-01-15T04:10:12.844Z,-1.92
2018-01-15T04:12:40.334Z,-1.95
2018-01-15T04:15:07.810Z,-1.98
2018-01-15T04:17:35.337Z,-1.94
2018-01-15T04:20:02.892Z,-1.96
2018-01-15T04:22:30.370Z,-2.03
2018-01-15T04:24:57.846Z,-1.92
2018-01-15T04:27:25.354Z,-1.87
2018-01-15T04:29:52.866Z,-1.86
2018-01-15T04:32:20.332Z,-1.80
2018-01-15T04:34:47.854Z,-1.75
2018-01-15T04:37:15.368Z,-1.77
2018-01-15T04:39:42.840Z,-1.71
2018-01-15T04:42:10.294Z,-1.72
2018-01-15T04:44:37.852Z,-1.70
2018-01-15T04:47:05.336Z,-1.72
2018-01-15T04:49:32.877Z,-1.69
2018-01-15T04:52:00.433Z,-1.67
2018-01-15T04:54:27.894Z,-1.63
2018-01-15T04:56:55.373Z,-1.68
2018-01-15T04:59:22.853Z,-1.78
2018-01-15T05:01:50.332Z,-1.78
2018-01-15T05:04:17.837Z,-1.72
2018-01-15T05:06:45.416Z,-1.77
2018-01-15T05:09:12.906Z,-1.75
2018-01-15T05:11:40.633Z,-1.76
2018-01-15T05:14:08.119Z,-1.73
2018-01-15T05:16:35.637Z,-1.74
2018-01-15T05:19:03.295Z,-1.68
2018-01-15T05:21:30.773Z,-1.59
2018-01-15T05:23:58.261Z,-1.56
2018-01-15T05:26:25.761Z,-1.60
2018-01-15T05:28:53.227Z,-1.61
2018-01-15T05:31:20.690Z,-1.59
2018-01-15T05:33:48.205Z,-1.58
2018-01-15T05:36:15.694Z,-1.58
2018-01-15T05:38:43.191Z,-1.57
2018-01-15T05:41:10.680Z,-1.47
2018-01-15T05:43:38.161Z,-1.44
2018-01-15T05:46:05.662Z,-1.45
2018-01-15T05:48:33.174Z,-1.48
2018-01-15T05:51:00.668Z,-1.45
2018-01-15T05:53:28.185Z,-1.44
2018-01-15T05:55:55.792Z,-1.37
2018-01-15T05:58:23.253Z,-1.32
2018-01-15T06:00:50.762Z,-1.31
2018-01-15T06:03:18.231Z,-1.27
2018-01-15T06:05:45.713Z,-1.19
2018-01-15T06:08:13.225Z,-1.21
2018-01-15T06:10:40.717Z,-1.22
2018-01-15T06:13:08.206Z,-1.25
2018-01-15T06:15:35.699Z,-1.37
2018-01-15T06:18:03.185Z,-1.35
2018-01-15T06:20:30.665Z,-1.33
2018-01-15T06:22:58.221Z,-1.32
2018-01-15T06:25:25.710Z,-1.31
2018-01-15T06:27:53.195Z,-1.36
2018-01-15T06:30:20.667Z,-1.33
2018-01-15T06:32:48.140Z,-1.33
2018-01-15T06:35:15.778Z,-1.35
2018-01-15T06:37:43.234Z,-1.49
2018-01-15T06:40:10.711Z,-1.60
2018-01-15T06:42:38.221Z,-1.67
2018-01-15T06:45:05.730Z,-1.64
2018-01-15T06:47:33.195Z,-1.71
2018-01-15T06:50:00.683Z,-1.79
2018-01-15T06:52:28.167Z,-1.87
2018-01-15T06:54:55.625Z,-1.87
2018-01-15T06:57:23.090Z,-1.89
2018-01-15T06:59:50.574Z,-1.90
2018-01-15T07:02:18.063Z,-1.96
2018-01-15T07:04:45.526Z,-2.02
2018-01-15T07:07:13.045Z,-2.02
2018-01-15T07:09:40.684Z,-2.08
2018-01-15T07:12:08.380Z,-2.13
2018-01-15T07:14:35.875Z,-2.16
2018-01-15T07:17:03.369Z,-2.17
2018-01-15T07:19:31.027Z,-2.18
2018-01-15T07:21:58.511Z,-2.19
2018-01-15T07:24:26.003Z,-2.17
2018-01-15T07:26:53.497Z,-2.14
2018-01-15T07:29:21.157Z,-2.18
2018-01-15T07:31:48.650Z,-2.19
2018-01-15T07:34:16.152Z,-2.17
2018-01-15T07:36:43.646Z,-2.22
2018-01-15T07:39:11.243Z,-2.21
2018-01-15T07:41:38.803Z,-2.19
2018-01-15T07:44:06.277Z,-2.19
2018-01-15T07:46:33.782Z,-2.19
2018-01-15T07:49:01.340Z,-2.17
2018-01-15T07:51:28.855Z,-2.14
2018-01-15T07:53:56.395Z,-2.12
2018-01-15T07:56:23.905Z,-2.10
2018-01-15T07:58:51.376Z,-2.08
2018-01-15T08:01:18.862Z,-2.03
2018-01-15T08:03:46.347Z,-1.98
2018-01-15T08:06:13.869Z,-1.89
2018-01-15T08:08:41.355Z,-1.87
2018-01-15T08:11:08.818Z,-1.82
2018-01-15T08:13:36.357Z,-1.76
2018-01-15T08:16:03.826Z,-1.75
2018-01-15T08:18:31.286Z,-1.72
2018-01-15T08:20:58.802Z,-1.64
2018-01-15T08:23:26.290Z,-1.65
2018-01-15T08:25:53.749Z,-1.65
2018-01-15T08:28:21.240Z,-1.59
2018-01-15T08:30:48.702Z,-1.56
2018-01-15T08:33:16.201Z,-1.51
2018-01-15T08:35:43.744Z,-1.49
2018-01-15T08:38:11.225Z,-1.45
2018-01-15T08:40:38.706Z,-1.45
2018-01-15T08:43:06.256Z,-1.41
2018-01-15T08:45:33.779Z,-1.34
2018-01-15T08:48:01.239Z,-1.26
2018-01-15T08:50:28.757Z,-1.22
2018-01-15T08:52:56.349Z,-1.20
2018-01-15T08:55:23.814Z,-1.12
2018-01-15T08:57:51.378Z,-1.08
2018-01-15T09:00:18.854Z,-1.03
2018-01-15T09:02:46.395Z,-0.89
2018-01-15T09:05:13.907Z,-0.87
2018-01-15T09:07:41.434Z,-0.77
2018-01-15T09:10:08.993Z,-0.71
2018-01-15T09:12:36.524Z,-0.69
2018-01-15T09:15:04.738Z,-0.69
2018-01-15T09:17:32.205Z,-0.60
2018-01-15T09:19:59.709Z,-0.61
2018-01-15T09:22:27.210Z,-0.52
2018-01-15T09:24:54.726Z,-0.40
2018-01-15T09:27:22.420Z,-0.34
2018-01-15T09:29:49.882Z,-0.33
2018-01-15T09:32:17.365Z,-0.15
2018-01-15T09:34:44.846Z,0.02
2018-01-15T09:37:12.375Z,0.32
2018-01-15T09:39:39.872Z,0.52
2018-01-15T09:42:07.354Z,0.51
2018-01-15T09:44:34.874Z,0.30
2018-01-15T09:47:02.372Z,0.17
2018-01-15T09:49:29.897Z,0.07
2018-01-15T09:51:57.503Z,0.10
2018-01-15T09:54:24.962Z,0.15
2018-01-15T09:56:52.449Z,0.14
2018-01-15T09:59:19.962Z,0.23
2018-01-15T10:01:47.485Z,0.26
2018-01-15T10:04:14.998Z,0.25
2018-01-15T10:06:42.559Z,0.30
2018-01-15T10:09:10.028Z,0.31
2018-01-15T10:11:37.582Z,0.29
2018-01-15T10:14:05.068Z,0.31
2018-01-15T10:16:32.552Z,0.35
2018-01-15T10:19:00.044Z,0.42
2018-01-15T10:21:27.505Z,0.50
2018-01-15T10:23:55.214Z,0.51
2018-01-15T10:26:22.771Z,0.59
2018-01-15T10:28:50.257Z,0.68
2018-01-15T10:31:17.791Z,0.73
2018-01-15T10:33:45.284Z,0.78
2018-01-15T10:36:12.769Z,0.82
2018-01-15T10:38:40.227Z,0.91
2018-01-15T10:41:07.716Z,1.02
2018-01-15T10:43:35.205Z,1.10
2018-01-15T10:46:02.690Z,1.16
2018-01-15T10:48:30.181Z,1.24
2018-01-15T10:50:57.666Z,1.27
2018-01-15T10:53:25.125Z,1.29
2018-01-15T10:55:52.598Z,1.36
2018-01-15T10:58:20.087Z,1.41
2018-01-15T11:00:51.392Z,1.49
2018-01-15T11:03:18.874Z,1.62
2018-01-15T11:05:46.647Z,1.65
2018-01-15T11:08:14.129Z,1.64
2018-01-15T11:10:41.779Z,1.73
2018-01-15T11:13:09.300Z,1.81
2018-01-15T11:15:36.785Z,1.90
2018-01-15T11:18:04.289Z,1.88
2018-01-15T11:20:31.754Z,1.93
2018-01-15T11:22:59.250Z,1.96
2018-01-15T11:25:26.779Z,2.02
2018-01-15T11:27:54.241Z,2.13
2018-01-15T11:30:21.741Z,2.12
2018-01-15T11:32:49.254Z,2.17
2018-01-15T11:35:16.825Z,2.18
2018-01-15T11:37:44.316Z,2.20
2018-01-15T11:40:11.804Z,2.24
2018-01-15T11:42:39.288Z,2.28
2018-01-15T11:45:06.740Z,2.35
2018-01-15T11:47:34.199Z,2.39
2018-01-15T11:50:01.704Z,2.47
2018-01-15T11:52:29.189Z,2.50
2018-01-15T11:54:56.654Z,2.53
2018-01-15T11:57:24.123Z,2.60
2018-01-15T11:59:51.610Z,2.61
2018-01-15T12:02:19.123Z,2.64
2018-01-15T12:04:46.585Z,2.67
2018-01-15T12:07:14.171Z,2.74
2018-01-15T12:09:41.633Z,2.72
2018-01-15T12:12:09.157Z,2.74
2018-01-15T12:14:36.662Z,2.80
2018-01-15T12:17:04.174Z,2.83
2018-01-15T12:19:31.646Z,2.83
2018-01-15T12:22:00.233Z,2.79
2018-01-15T12:24:28.630Z,2.78
2018-01-15T12:26:56.121Z,2.78
2018-01-15T12:29:23.619Z,2.83
2018-01-15T12:31:51.098Z,2.80
2018-01-15T12:34:18.557Z,2.80
2018-01-15T12:36:46.068Z,2.81
2018-01-15T12:39:13.530Z,2.82
2018-01-15T12:41:41.043Z,2.86
2018-01-15T12:44:08.517Z,2.86
2018-01-15T12:46:36.115Z,2.85
2018-01-15T12:49:03.617Z,2.86
2018-01-15T12:51:31.101Z,2.90
2018-01-15T12:53:58.614Z,2.98
2018-01-15T12:56:26.098Z,3.00
2018-01-15T12:58:53.567Z,3.02
2018-01-15T13:01:21.075Z,3.04
2018-01-15T13:03:48.668Z,3.07
2018-01-15T13:06:20.158Z,3.11
2018-01-15T13:08:49.498Z,3.08
2018-01-15T13:11:17.004Z,3.09
2018-01-15T13:13:44.474Z,3.13
2018-01-15T13:16:11.949Z,3.13
2018-01-15T13:18:39.444Z,3.10
2018-01-15T13:21:06.976Z,3.04
2018-01-15T13:23:34.456Z,2.97
2018-01-15T13:26:01.945Z,3.02
2018-01-15T13:28:29.407Z,3.02
2018-01-15T13:30:56.870Z,3.06
2018-01-15T13:33:24.454Z,3.05
2018-01-15T13:35:51.934Z,3.04
2018-01-15T13:38:19.501Z,3.09
2018-01-15T13:40:46.970Z,3.08
2018-01-15T13:43:14.444Z,3.07
2018-01-15T13:45:41.926Z,3.09
2018-01-15T13:48:09.438Z,3.09
2018-01-15T13:50:36.963Z,3.13
2018-01-15T13:53:04.555Z,3.09
2018-01-15T13:55:32.022Z,3.06
2018-01-15T13:57:59.495Z,3.06
2018-01-15T14:00:27.025Z,3.01
2018-01-15T14:02:54.491Z,3.01
2018-01-15T14:05:21.967Z,3.00
2018-01-15T14:07:49.472Z,3.04
2018-01-15T14:10:16.968Z,3.04
2018-01-15T14:12:44.470Z,3.02
2018-01-15T14:15:11.949Z,3.01
2018-01-15T14:17:39.534Z,2.98
2018-01-15T14:20:07.029Z,2.93
2018-01-15T14:22:34.512Z,2.85
2018-01-15T14:25:01.994Z,2.83
2018-01-15T14:27:29.469Z,2.79
2018-01-15T14:29:56.942Z,2.75
2018-01-15T14:32:24.403Z,2.74
2018-01-15T14:34:51.873Z,2.72
2018-01-15T14:37:19.413Z,2.65
2018-01-15T14:39:46.908Z,2.60
2018-01-15T14:42:15.279Z,2.60
2018-01-15T14:44:42.779Z,2.58
2018-01-15T14:47:10.238Z,2.59
2018-01-15T14:49:37.901Z,2.57
2018-01-15T14:52:05.481Z,2.49
2018-01-15T14:54:32.953Z,2.43
2018-01-15T14:57:00.433Z,2.36
2018-01-15T14:59:27.948Z,2.31
2018-01-15T15:01:55.487Z,2.21
2018-01-15T15:04:22.973Z,2.19
2018-01-15T15:06:50.450Z,2.19
2018-01-15T15:09:17.942Z,2.22
2018-01-15T15:11:45.450Z,2.22
2018-01-15T15:14:13.033Z,2.22
2018-01-15T15:16:40.522Z,2.20
2018-01-15T15:19:08.034Z,2.21
2018-01-15T15:21:35.539Z,2.20
2018-01-15T15:24:03.021Z,2.19
2018-01-15T15:26:30.542Z,2.18
2018-01-15T15:28:58.030Z,2.21
2018-01-15T15:31:25.507Z,2.15
2018-01-15T15:33:53.018Z,2.13
2018-01-15T15:36:20.498Z,2.18
2018-01-15T15:38:47.978Z,2.10
2018-01-15T15:41:15.474Z,2.05
2018-01-15T15:43:42.960Z,2.02
2018-01-15T15:46:10.430Z,1.99
2018-01-15T15:48:37.911Z,1.99
2018-01-15T15:51:05.394Z,1.98
2018-01-15T15:53:32.869Z,2.00
2018-01-15T15:56:00.358Z,2.00
2018-01-15T15:58:27.900Z,1.99
2018-01-15T16:00:55.334Z,1.97
2018-01-15T16:03:22.830Z,1.96
2018-01-15T16:05:50.334Z,1.98
2018-01-15T16:08:17.842Z,1.93
2018-01-15T16:10:45.538Z,1.91
2018-01-15T16:13:13.024Z,1.89
2018-01-15T16:15:40.490Z,1.86
2018-01-15T16:18:07.966Z,1.85
2018-01-15T16:20:35.450Z,1.88
2018-01-15T16:23:02.936Z,1.91
2018-01-15T16:25:30.402Z,1.88
2018-01-15T16:27:57.870Z,1.85
2018-01-15T16:30:25.345Z,1.84
2018-01-15T16:32:52.833Z,1.79
2018-01-15T16:35:20.321Z,1.77
2018-01-15T16:37:48.046Z,1.70
2018-01-15T16:40:15.536Z,1.63
2018-01-15T16:42:43.010Z,1.64
2018-01-15T16:45:10.547Z,1.64
2018-01-15T16:47:38.034Z,1.62
2018-01-15T16:50:11.242Z,1.58
2018-01-15T16:52:38.728Z,1.58
2018-01-15T16:55:06.213Z,1.57
2018-01-15T16:57:33.713Z,1.57
2018-01-15T17:00:01.196Z,1.56
2018-01-15T17:02:28.696Z,1.58
2018-01-15T17:04:56.155Z,1.59
2018-01-15T17:07:23.653Z,1.62
2018-01-15T17:09:51.567Z,1.59
2018-01-15T17:12:19.065Z,1.59
2018-01-15T17:14:46.552Z,1.59
2018-01-15T17:17:14.027Z,1.55
2018-01-15T17:19:41.505Z,1.56
2018-01-15T17:22:09.210Z,1.58
2018-01-15T17:24:36.697Z,1.63
2018-01-15T17:27:04.225Z,1.64
2018-01-15T17:29:31.697Z,1.64
2018-01-15T17:31:59.202Z,1.66
2018-01-15T17:34:26.757Z,1.62
2018-01-15T17:36:54.237Z,1.58
2018-01-15T17:39:21.714Z,1.65
2018-01-15T17:41:49.194Z,1.64
2018-01-15T17:44:16.691Z,1.64
2018-01-15T17:46:44.175Z,1.64
2018-01-15T17:49:11.637Z,1.64
2018-01-15T17:51:39.102Z,1.59
2018-01-15T17:54:06.929Z,1.55
2018-01-15T17:56:34.388Z,1.56
2018-01-15T17:59:01.846Z,1.53
2018-01-15T18:01:29.347Z,1.56
2018-01-15T18:03:56.842Z,1.58
2018-01-15T18:06:24.304Z,1.60
2018-01-15T18:08:51.794Z,1.60
2018-01-15T18:11:19.254Z,1.59
2018-01-15T18:13:46.734Z,1.65
2018-01-15T18:16:14.258Z,1.58
2018-01-15T18:18:41.715Z,1.59
2018-01-15T18:21:09.170Z,1.57
2018-01-15T18:23:36.674Z,1.53
2018-01-15T18:26:04.181Z,1.57
2018-01-15T18:28:31.638Z,1.58
2018-01-15T18:30:59.149Z,1.56
2018-01-15T18:33:26.635Z,1.58
2018-01-15T18:35:54.103Z,1.53
2018-01-15T18:38:21.657Z,1.51
2018-01-15T18:40:49.142Z,1.53
2018-01-15T18:43:16.630Z,1.57
2018-01-15T18:45:44.210Z,1.55
2018-01-15T18:48:11.698Z,1.55
2018-01-15T18:50:39.221Z,1.54
2018-01-15T18:53:06.681Z,1.54
2018-01-15T18:55:38.145Z,1.53
2018-01-15T18:58:05.650Z,1.50
2018-01-15T19:00:33.133Z,1.53
2018-01-15T19:03:00.605Z,1.48
2018-01-15T19:05:28.074Z,1.50
2018-01-15T19:07:55.589Z,1.49
2018-01-15T19:10:23.086Z,1.53
2018-01-15T19:12:50.570Z,1.52
2018-01-15T19:15:18.054Z,1.50
2018-01-15T19:17:45.514Z,1.51
2018-01-15T19:20:12.974Z,1.49
2018-01-15T19:22:40.476Z,1.53
2018-01-15T19:25:07.968Z,1.50
2018-01-15T19:27:35.527Z,1.51
2018-01-15T19:30:03.016Z,1.52
2018-01-15T19:32:30.492Z,1.52
2018-01-15T19:35:18.858Z,1.53
2018-01-15T19:37:46.613Z,1.53
2018-01-15T19:40:14.122Z,1.51
2018-01-15T19:42:41.595Z,1.46
2018-01-15T19:45:14.536Z,1.45
2018-01-15T19:50:55.020Z,1.32
2018-01-15T19:53:28.075Z,1.25
2018-01-15T19:56:01.127Z,1.18
2018-01-15T19:58:34.241Z,1.16
2018-01-15T20:01:07.559Z,1.14
2018-01-15T20:03:40.807Z,1.14
2018-01-15T20:06:13.838Z,1.14
2018-01-15T20:08:46.866Z,1.19
2018-01-15T20:11:14.362Z,1.27
2018-01-15T20:13:41.835Z,1.25
2018-01-15T20:16:09.319Z,1.29
2018-01-15T20:18:36.807Z,1.34
2018-01-15T20:21:04.294Z,1.32
2018-01-15T20:23:31.817Z,1.29
2018-01-15T20:25:59.358Z,1.30
2018-01-15T20:28:26.889Z,1.32
2018-01-15T20:30:54.393Z,1.36
2018-01-15T20:33:21.895Z,1.37
2018-01-15T20:35:49.372Z,1.35
2018-01-15T20:38:16.903Z,1.38
2018-01-15T20:40:44.402Z,1.41
2018-01-15T20:43:11.910Z,1.42
2018-01-15T20:45:39.518Z,1.41
2018-01-15T20:48:07.072Z,1.42
2018-01-15T20:50:34.534Z,1.42
2018-01-15T20:53:02.094Z,1.41
2018-01-15T20:55:29.814Z,1.41
2018-01-15T20:57:57.294Z,1.45
2018-01-15T21:00:24.868Z,1.44
2018-01-15T21:02:52.345Z,1.42
2018-01-15T21:05:19.798Z,1.43
2018-01-15T21:07:47.258Z,1.52
2018-01-15T21:10:14.758Z,1.51
2018-01-15T21:12:42.246Z,1.52
2018-01-15T21:15:09.735Z,1.47
2018-01-15T21:17:37.224Z,1.48
2018-01-15T21:20:04.675Z,1.47
2018-01-15T21:22:32.168Z,1.50
2018-01-15T21:24:59.672Z,1.49
2018-01-15T21:27:27.138Z,1.46
2018-01-15T21:29:54.625Z,1.47
2018-01-15T21:32:22.582Z,1.48
2018-01-15T21:34:50.057Z,1.49
2018-01-15T21:37:17.632Z,1.51
2018-01-15T21:39:45.216Z,1.53
2018-01-15T21:42:12.710Z,1.52
2018-01-15T21:44:40.166Z,1.53
2018-01-15T21:47:07.649Z,1.55
2018-01-15T21:49:35.214Z,1.56
2018-01-15T21:52:02.699Z,1.56
2018-01-15T21:54:30.181Z,1.57
2018-01-15T21:56:57.638Z,1.57
2018-01-15T21:59:25.121Z,1.54
2018-01-15T22:01:52.594Z,1.53
2018-01-15T22:04:20.572Z,1.53
2018-01-15T22:06:48.053Z,1.49
2018-01-15T22:09:15.591Z,1.47
2018-01-15T22:11:43.146Z,1.47
2018-01-15T22:14:10.694Z,1.43
2018-01-15T22:16:38.152Z,1.41
2018-01-15T22:19:05.648Z,1.37
2018-01-15T22:21:33.134Z,1.36
2018-01-15T22:24:00.585Z,1.37
2018-01-15T22:26:28.039Z,1.41
2018-01-15T22:28:55.569Z,1.41
2018-01-15T22:31:23.018Z,1.45
2018-01-15T22:33:50.473Z,1.47
2018-01-15T22:36:17.949Z,1.49
2018-01-15T22:38:45.440Z,1.50
2018-01-15T22:41:12.908Z,1.48
2018-01-15T22:43:40.405Z,1.51
2018-01-15T22:46:07.888Z,1.51
2018-01-15T22:48:35.387Z,1.46
2018-01-15T22:51:02.878Z,1.47
2018-01-15T22:53:30.338Z,1.47
2018-01-15T22:55:57.879Z,1.45
2018-01-15T22:58:25.373Z,1.49
2018-01-15T23:00:52.849Z,1.48
2018-01-15T23:03:20.345Z,1.43
2018-01-15T23:05:47.867Z,1.47
2018-01-15T23:08:15.325Z,1.42
2018-01-15T23:10:42.801Z,1.41
2018-01-15T23:13:10.301Z,1.40
2018-01-15T23:15:37.854Z,1.39
2018-01-15T23:18:05.347Z,1.37
2018-01-15T23:20:32.860Z,1.34
2018-01-15T23:23:00.326Z,1.35
2018-01-15T23:25:27.807Z,1.33
2018-01-15T23:27:55.317Z,1.33
2018-01-15T23:30:22.782Z,1.34
2018-01-15T23:32:50.244Z,1.34
2018-01-15T23:35:17.722Z,1.31
2018-01-15T23:37:45.174Z,1.28
2018-01-15T23:40:12.735Z,1.27
2018-01-15T23:42:40.231Z,1.22
2018-01-15T23:45:07.726Z,1.22
2018-01-15T23:47:35.193Z,1.20
2018-01-15T23:50:02.711Z,1.12
2018-01-15T23:52:30.171Z,1.14
2018-01-15T23:54:57.633Z,1.16
2018-01-15T23:57:25.113Z,1.17
2018-01-15T23:59:52.597Z,1.17
